Time,TemperatureF,DewpointF,PressureIn,WindDirection,WindDirectionDegrees,WindSpeedMPH,WindSpeedGustMPH,Humidity,HourlyPrecipIn,Conditions,Clouds,dailyrainin,SoftwareType,DateUTC
2013-08-08 00:01:00,66.5,59.1,30.09,SE,135,2.6,2.6,77,0.00,,---,0.00,VWS V14.01,2013-08-08 04:01:00,
2013-08-08 00:06:00,66.5,59.1,30.09,SE,135,3.8,3.8,77,0.00,,---,0.00,VWS V14.01,2013-08-08 04:06:00,
2013-08-08 00:11:00,66.5,59.1,30.09,SE,135,0.0,0.0,77,0.00,,---,0.00,VWS V14.01,2013-08-08 04:11:00,
2013-08-08 00:16:00,66.5,59.1,30.08,SSE,158,0.0,0.0,77,0.00,,---,0.00,VWS V14.01,2013-08-08 04:16:00,
2013-08-08 00:21:00,66.5,59.1,30.08,SE,135,6.4,6.4,77,0.00,,---,0.00,VWS V14.01,2013-08-08 04:21:00,
2013-08-08 00:26:00,66.5,59.1,30.08,SE,135,0.8,0.8,77,0.00,,---,0.00,VWS V14.01,2013-08-08 04:26:00,
2013-08-08 00:31:00,66.5,59.1,30.08,SE,135,0.0,0.0,77,0.00,,---,0.00,VWS V14.01,2013-08-08 04:31:00,
2013-08-08 00:36:00,66.5,59.1,30.09,SE,135,0.0,0.0,77,0.00,,---,0.00,VWS V14.01,2013-08-08 04:36:00,
2013-08-08 00:41:00,66.5,59.1,30.09,SE,135,0.0,0.0,77,0.00,,---,0.00,VWS V14.01,2013-08-08 04:41:00,
2013-08-08 00:46:00,66.5,59.4,30.08,SW,225,0.0,0.0,78,0.00,,---,0.00,VWS V14.01,2013-08-08 04:46:00,
2013-08-08 00:51:00,66.5,59.4,30.08,SW,225,0.0,0.0,78,0.00,,---,0.00,VWS V14.01,2013-08-08 04:51:00,
2013-08-08 00:56:00,66.5,59.4,30.08,SE,135,0.0,0.0,78,0.00,,---,0.00,VWS V14.01,2013-08-08 04:56:00,
2013-08-08 01:01:00,66.7,59.6,30.07,SSE,158,0.0,1.5,78,0.00,,---,0.19,VWS V14.01,2013-08-08 05:01:00,
2013-08-08 01:06:00,66.7,59.6,30.08,SE,135,0.0,0.0,78,0.00,,---,0.19,VWS V14.01,2013-08-08 05:06:00,
2013-08-08 01:11:00,66.7,59.6,30.08,SE,135,0.8,0.8,78,0.00,,---,0.00,VWS V14.01,2013-08-08 05:11:00,
2013-08-08 01:16:00,66.7,59.6,30.08,SE,135,0.0,0.0,78,0.00,,---,0.00,VWS V14.01,2013-08-08 05:16:00,
2013-08-08 01:21:00,66.7,59.6,30.07,SE,135,0.0,0.0,78,0.00,,---,0.00,VWS V14.01,2013-08-08 05:21:00,
2013-08-08 01:26:00,66.7,59.6,30.07,SE,135,0.0,0.0,78,0.00,,---,0.00,VWS V14.01,2013-08-08 05:26:00,
2013-08-08 01:31:00,66.7,59.6,30.07,SE,135,0.0,0.0,78,0.00,,---,0.00,VWS V14.01,2013-08-08 05:31:00,
2013-08-08 01:36:00,66.9,59.8,30.07,SSE,158,0.0,0.0,78,0.00,,---,0.00,VWS V14.01,2013-08-08 05:36:00,
2013-08-08 01:41:00,66.9,59.8,30.07,SE,135,2.4,2.4,78,0.00,,---,0.00,VWS V14.01,2013-08-08 05:41:00,
2013-08-08 01:46:00,66.9,59.8,30.06,NNE,22,0.0,0.0,78,0.00,,---,0.19,VWS V14.01,2013-08-08 05:46:00,
2013-08-08 01:51:00,66.9,59.8,30.07,WSW,248,1.3,1.3,78,0.00,,---,0.19,VWS V14.01,2013-08-08 05:51:00,
2013-08-08 01:56:00,67.1,60.0,30.07,SE,135,0.0,0.0,78,0.00,,---,0.00,VWS V14.01,2013-08-08 05:56:00,
2013-08-08 02:01:00,67.1,60.0,30.07,South,180,0.0,0.0,78,0.00,,---,0.00,VWS V14.01,2013-08-08 06:01:00,
2013-08-08 02:06:00,67.2,60.1,30.07,SE,135,0.0,0.0,78,0.00,,---,0.00,VWS V14.01,2013-08-08 06:06:00,
2013-08-08 02:11:00,67.1,60.0,30.07,SE,135,0.0,0.0,78,0.00,,---,0.00,VWS V14.01,2013-08-08 06:11:00,
2013-08-08 02:16:00,67.2,60.1,30.08,SE,135,0.0,0.0,78,0.00,,---,0.00,VWS V14.01,2013-08-08 06:16:00,
2013-08-08 02:21:00,67.2,60.1,30.07,SE,135,4.2,4.2,78,0.00,,---,0.00,VWS V14.01,2013-08-08 06:21:00,
2013-08-08 02:26:00,67.2,60.1,30.07,SE,135,0.0,0.0,78,0.00,,---,0.00,VWS V14.01,2013-08-08 06:26:00,
2013-08-08 02:31:00,67.2,60.1,30.06,SE,135,0.0,0.0,78,0.00,,---,0.00,VWS V14.01,2013-08-08 06:31:00,
2013-08-08 02:36:00,67.2,60.1,30.07,SE,135,2.4,2.4,78,0.00,,---,0.00,VWS V14.01,2013-08-08 06:36:00,
2013-08-08 02:41:00,67.2,60.1,30.07,SE,135,0.0,0.0,78,0.00,,---,0.00,VWS V14.01,2013-08-08 06:41:00,
2013-08-08 02:46:00,67.4,60.3,30.07,SE,135,4.9,4.9,78,0.00,,---,0.00,VWS V14.01,2013-08-08 06:46:00,
2013-08-08 02:51:00,67.4,60.3,30.07,SE,135,1.1,1.1,78,0.00,,---,0.00,VWS V14.01,2013-08-08 06:51:00,
2013-08-08 02:56:00,67.6,60.5,30.07,NW,315,0.0,0.0,78,0.00,,---,0.00,VWS V14.01,2013-08-08 06:56:00,
2013-08-08 03:01:00,67.6,60.5,30.07,SE,135,3.3,3.3,78,0.00,,---,0.00,VWS V14.01,2013-08-08 07:01:00,
2013-08-08 03:06:00,67.6,60.5,30.07,SSE,158,0.0,0.0,78,0.00,,---,0.00,VWS V14.01,2013-08-08 07:06:00,
2013-08-08 03:11:00,67.6,60.5,30.07,South,180,3.1,3.1,78,0.00,,---,0.00,VWS V14.01,2013-08-08 07:11:00,
2013-08-08 03:16:00,67.6,60.5,30.07,SSE,158,0.0,0.0,78,0.00,,---,0.00,VWS V14.01,2013-08-08 07:16:00,
2013-08-08 03:21:00,67.6,60.5,30.07,East,90,0.0,0.0,78,0.00,,---,0.00,VWS V14.01,2013-08-08 07:21:00,
2013-08-08 03:26:00,67.6,60.5,30.07,SE,135,0.0,0.0,78,0.00,,---,0.00,VWS V14.01,2013-08-08 07:26:00,
2013-08-08 03:31:00,67.6,60.5,30.07,East,90,0.0,0.0,78,0.00,,---,0.00,VWS V14.01,2013-08-08 07:31:00,
2013-08-08 03:36:00,67.6,60.5,30.07,SE,135,0.0,0.0,78,0.00,,---,0.00,VWS V14.01,2013-08-08 07:36:00,
2013-08-08 03:41:00,67.6,60.5,30.07,North,0,0.0,0.0,78,0.00,,---,0.00,VWS V14.01,2013-08-08 07:41:00,
2013-08-08 03:46:00,67.6,60.9,30.07,SE,135,0.0,0.0,79,0.00,,---,0.00,VWS V14.01,2013-08-08 07:46:00,
2013-08-08 03:51:00,67.6,60.9,30.07,SSE,158,0.0,0.0,79,0.00,,---,0.00,VWS V14.01,2013-08-08 07:51:00,
2013-08-08 03:56:00,67.6,60.9,30.07,SE,135,0.0,0.0,79,0.00,,---,0.00,VWS V14.01,2013-08-08 07:56:00,
2013-08-08 04:01:00,67.6,60.9,30.07,SE,135,0.0,0.0,79,0.00,,---,0.00,VWS V14.01,2013-08-08 08:01:00,
2013-08-08 04:06:00,67.6,60.9,30.06,WNW,292,0.0,0.0,79,0.00,,---,0.00,VWS V14.01,2013-08-08 08:06:00,
2013-08-08 04:11:00,67.6,60.9,30.06,SE,135,0.4,0.4,79,0.00,,---,0.00,VWS V14.01,2013-08-08 08:11:00,
2013-08-08 04:16:00,67.6,60.9,30.06,SE,135,1.3,3.1,79,0.00,,---,0.00,VWS V14.01,2013-08-08 08:16:00,
2013-08-08 04:21:00,67.6,60.9,30.06,SE,135,1.7,1.7,79,0.00,,---,0.00,VWS V14.01,2013-08-08 08:21:00,
2013-08-08 04:26:00,67.6,60.9,30.06,SE,135,0.0,0.0,79,0.00,,---,0.00,VWS V14.01,2013-08-08 08:26:00,
2013-08-08 04:31:00,67.6,60.9,30.06,ESE,112,0.0,0.0,79,0.00,,---,0.00,VWS V14.01,2013-08-08 08:31:00,
2013-08-08 04:36:00,67.6,60.9,30.05,SE,135,0.0,0.0,79,0.00,,---,0.00,VWS V14.01,2013-08-08 08:36:00,
2013-08-08 04:41:00,67.6,60.9,30.06,SE,135,0.0,0.0,79,0.00,,---,0.00,VWS V14.01,2013-08-08 08:41:00,
2013-08-08 04:46:00,67.4,60.7,30.06,SE,135,0.0,0.0,79,0.00,,---,0.00,VWS V14.01,2013-08-08 08:46:00,
2013-08-08 04:51:00,67.4,60.7,30.06,SSE,158,0.0,0.0,79,0.00,,---,0.00,VWS V14.01,2013-08-08 08:51:00,
2013-08-08 04:56:00,67.2,60.5,30.06,SE,135,0.0,0.0,79,0.00,,---,0.00,VWS V14.01,2013-08-08 08:56:00,
2013-08-08 05:01:00,67.2,60.5,30.06,NE,45,0.0,0.0,79,0.00,,---,0.00,VWS V14.01,2013-08-08 09:01:00,
2013-08-08 05:06:00,67.2,60.5,30.06,NW,315,0.0,0.0,79,0.00,,---,0.00,VWS V14.01,2013-08-08 09:06:00,
2013-08-08 05:11:00,67.2,60.5,30.07,SE,135,0.0,0.0,79,0.00,,---,0.00,VWS V14.01,2013-08-08 09:11:00,
2013-08-08 05:16:00,67.2,60.5,30.07,SE,135,0.0,0.0,79,0.00,,---,0.00,VWS V14.01,2013-08-08 09:16:00,
2013-08-08 05:21:00,67.2,60.5,30.07,SE,135,0.0,0.0,79,0.00,,---,0.00,VWS V14.01,2013-08-08 09:21:00,
2013-08-08 05:26:00,67.2,60.5,30.08,WNW,292,0.0,0.0,79,0.00,,---,0.00,VWS V14.01,2013-08-08 09:26:00,
2013-08-08 07:59:00,67.6,61.6,30.10,NNW,338,0.0,0.0,81,0.00,,---,0.19,VWS V14.01,2013-08-08 11:59:00,
2013-08-08 08:04:00,67.6,61.6,30.10,SSE,158,0.0,0.0,81,0.00,,---,0.00,VWS V14.01,2013-08-08 12:04:00,
2013-08-08 08:09:00,67.8,61.8,30.11,NW,315,0.0,0.0,81,0.00,,---,0.00,VWS V14.01,2013-08-08 12:09:00,
2013-08-08 08:14:00,67.8,61.8,30.11,North,0,0.0,0.0,81,0.00,,---,0.00,VWS V14.01,2013-08-08 12:14:00,
2013-08-08 08:19:00,67.8,61.4,30.12,WNW,292,0.0,0.0,80,0.00,,---,0.00,VWS V14.01,2013-08-08 12:19:00,
2013-08-08 08:24:00,67.8,61.4,30.12,North,0,0.0,0.0,80,0.00,,---,0.00,VWS V14.01,2013-08-08 12:24:00,
2013-08-08 08:29:00,67.8,61.4,30.12,NW,315,0.0,0.0,80,0.00,,---,0.00,VWS V14.01,2013-08-08 12:29:00,
2013-08-08 08:34:00,67.8,61.4,30.12,SSW,202,0.0,0.0,80,0.00,,---,0.00,VWS V14.01,2013-08-08 12:34:00,
2013-08-08 08:39:00,67.8,61.4,30.12,West,270,0.0,0.0,80,0.00,,---,0.00,VWS V14.01,2013-08-08 12:39:00,
2013-08-08 08:44:00,67.6,61.2,30.12,West,270,0.0,0.0,80,0.00,,---,0.00,VWS V14.01,2013-08-08 12:44:00,
2013-08-08 08:49:00,67.8,61.4,30.12,WNW,292,0.0,0.0,80,0.00,,---,0.00,VWS V14.01,2013-08-08 12:49:00,
2013-08-08 08:54:00,67.8,61.8,30.12,East,90,0.0,0.0,81,0.00,,---,0.00,VWS V14.01,2013-08-08 12:54:00,
2013-08-08 08:59:00,67.8,61.8,30.12,NW,315,0.0,0.0,81,0.00,,---,0.19,VWS V14.01,2013-08-08 12:59:00,
2013-08-08 09:04:00,67.6,61.6,30.12,NNW,338,0.0,0.0,81,0.00,,---,0.00,VWS V14.01,2013-08-08 13:04:00,
2013-08-08 09:09:00,67.8,61.8,30.12,WNW,292,0.0,0.0,81,0.00,,---,0.00,VWS V14.01,2013-08-08 13:09:00,
2013-08-08 09:14:00,67.8,61.8,30.12,NW,315,0.0,0.0,81,0.00,,---,0.00,VWS V14.01,2013-08-08 13:14:00,
2013-08-08 09:19:00,67.6,61.6,30.12,NW,315,0.0,0.0,81,0.00,,---,0.00,VWS V14.01,2013-08-08 13:19:00,
2013-08-08 09:24:00,67.6,61.6,30.12,WNW,292,0.0,0.0,81,0.00,,---,0.00,VWS V14.01,2013-08-08 13:24:00,
2013-08-08 09:29:00,67.8,61.8,30.12,North,0,0.0,0.0,81,0.00,,---,0.00,VWS V14.01,2013-08-08 13:29:00,
2013-08-08 09:34:00,67.8,61.8,30.11,NNW,338,0.0,0.0,81,0.00,,---,0.00,VWS V14.01,2013-08-08 13:34:00,
2013-08-08 09:39:00,67.8,61.8,30.11,NNW,338,0.0,0.0,81,0.00,,---,0.00,VWS V14.01,2013-08-08 13:39:00,
2013-08-08 09:44:00,67.8,61.8,30.11,NNW,338,0.0,0.0,81,0.00,,---,0.00,VWS V14.01,2013-08-08 13:44:00,
2013-08-08 09:49:00,68.0,62.0,30.11,NNW,338,0.0,0.0,81,0.00,,---,0.00,VWS V14.01,2013-08-08 13:49:00,
2013-08-08 09:54:00,68.3,62.2,30.11,NNW,338,0.0,0.0,81,0.00,,---,0.00,VWS V14.01,2013-08-08 13:54:00,
2013-08-08 09:59:00,68.1,62.1,30.11,NNW,338,0.0,0.0,81,0.00,,---,0.19,VWS V14.01,2013-08-08 13:59:00,
2013-08-08 10:04:00,68.5,62.5,30.11,NW,315,0.0,0.0,81,0.00,,---,0.00,VWS V14.01,2013-08-08 14:04:00,
2013-08-08 10:09:00,68.5,62.5,30.12,NNW,338,0.0,0.0,81,0.00,,---,0.00,VWS V14.01,2013-08-08 14:09:00,
2013-08-08 10:14:00,68.7,62.6,30.11,NNW,338,0.0,0.0,81,0.00,,---,0.00,VWS V14.01,2013-08-08 14:14:00,
2013-08-08 10:19:00,68.9,62.5,30.11,NNW,338,0.0,0.0,80,0.00,,---,0.00,VWS V14.01,2013-08-08 14:19:00,
2013-08-08 10:24:00,69.4,63.3,30.11,NW,315,0.0,0.0,81,0.00,,---,0.00,VWS V14.01,2013-08-08 14:24:00,
2013-08-08 10:29:00,69.6,63.2,30.10,NW,315,0.0,0.0,80,0.00,,---,0.00,VWS V14.01,2013-08-08 14:29:00,
2013-08-08 10:34:00,70.1,63.7,30.11,NW,315,0.0,0.0,80,0.00,,---,0.00,VWS V14.01,2013-08-08 14:34:00,
2013-08-08 10:39:00,70.3,63.8,30.11,NW,315,0.0,0.0,80,0.00,,---,0.00,VWS V14.01,2013-08-08 14:39:00,
2013-08-08 10:44:00,70.5,63.7,30.11,NW,315,0.0,0.0,79,0.00,,---,0.00,VWS V14.01,2013-08-08 14:44:00,
2013-08-08 10:49:00,70.8,64.0,30.10,NNW,338,0.0,0.0,79,0.00,,---,0.00,VWS V14.01,2013-08-08 14:49:00,
2013-08-08 10:54:00,71.2,64.0,30.10,NNW,338,0.0,0.0,78,0.00,,---,0.00,VWS V14.01,2013-08-08 14:54:00,
2013-08-08 10:59:00,71.4,63.8,30.11,NNW,338,0.0,0.0,77,0.00,,---,0.19,VWS V14.01,2013-08-08 14:59:00,
2013-08-08 11:04:00,71.4,63.8,30.11,NNW,338,0.0,0.0,77,0.00,,---,0.00,VWS V14.01,2013-08-08 15:04:00,
2013-08-08 11:09:00,71.4,63.8,30.11,NNW,338,0.0,0.0,77,0.00,,---,0.00,VWS V14.01,2013-08-08 15:09:00,
2013-08-08 11:14:00,71.4,63.8,30.10,NNW,338,0.0,0.0,77,0.00,,---,0.00,VWS V14.01,2013-08-08 15:14:00,
2013-08-08 11:19:00,71.7,64.1,30.10,NW,315,0.0,0.0,77,0.00,,---,0.00,VWS V14.01,2013-08-08 15:19:00,
2013-08-08 11:24:00,72.1,64.1,30.10,NNW,338,0.0,0.0,76,0.00,,---,0.00,VWS V14.01,2013-08-08 15:24:00,
2013-08-08 11:29:00,72.3,64.3,30.10,NW,315,0.0,0.0,76,0.00,,---,0.00,VWS V14.01,2013-08-08 15:29:00,
2013-08-08 11:34:00,72.5,64.5,30.10,NW,315,0.0,0.0,76,0.00,,---,0.00,VWS V14.01,2013-08-08 15:34:00,
2013-08-08 11:39:00,73.0,65.0,30.10,WNW,292,0.0,0.0,76,0.00,,---,0.00,VWS V14.01,2013-08-08 15:39:00,
2013-08-08 11:44:00,73.4,65.0,30.10,NW,315,0.0,0.0,75,0.00,,---,0.00,VWS V14.01,2013-08-08 15:44:00,
2013-08-08 11:49:00,73.7,64.9,30.10,NE,45,0.0,0.0,74,0.00,,---,0.00,VWS V14.01,2013-08-08 15:49:00,
2013-08-08 11:54:00,74.1,65.3,30.10,NE,45,0.0,0.0,74,0.00,,---,0.00,VWS V14.01,2013-08-08 15:54:00,
2013-08-08 11:59:00,74.4,65.6,30.09,NE,45,0.0,0.0,74,0.00,,---,0.19,VWS V14.01,2013-08-08 15:59:00,
2013-08-08 12:04:00,75.0,66.2,30.09,ENE,68,0.0,0.0,74,0.00,,---,0.00,VWS V14.01,2013-08-08 16:04:00,
2013-08-08 12:09:00,75.3,66.1,30.09,SSE,158,0.0,0.0,73,0.00,,---,0.00,VWS V14.01,2013-08-08 16:09:00,
2013-08-08 12:14:00,76.2,66.9,30.09,NW,315,0.0,0.0,73,0.00,,---,0.00,VWS V14.01,2013-08-08 16:14:00,
2013-08-08 12:19:00,76.8,67.5,30.08,NW,315,0.0,0.0,73,0.00,,---,0.00,VWS V14.01,2013-08-08 16:19:00,
2013-08-08 12:24:00,77.3,66.3,30.08,NW,315,0.0,0.0,69,0.00,,---,0.00,VWS V14.01,2013-08-08 16:24:00,
2013-08-08 12:29:00,77.5,66.1,30.08,NNW,338,0.0,0.0,68,0.00,,---,0.00,VWS V14.01,2013-08-08 16:29:00,
2013-08-08 12:34:00,77.5,66.5,30.08,NNW,338,0.0,0.0,69,0.00,,---,0.00,VWS V14.01,2013-08-08 16:34:00,
2013-08-08 12:39:00,78.0,66.6,30.08,NNW,338,0.0,0.0,68,0.00,,---,0.00,VWS V14.01,2013-08-08 16:39:00,
2013-08-08 12:44:00,78.6,67.2,30.08,NW,315,0.0,0.0,68,0.00,,---,0.00,VWS V14.01,2013-08-08 16:44:00,
2013-08-08 12:49:00,78.9,67.0,30.08,SE,135,0.0,0.0,67,0.00,,---,0.00,VWS V14.01,2013-08-08 16:49:00,
2013-08-08 12:54:00,79.1,66.3,30.08,NNE,22,0.0,0.0,65,0.00,,---,0.00,VWS V14.01,2013-08-08 16:54:00,
2013-08-08 12:59:00,79.3,67.0,30.08,SSW,202,0.0,0.0,66,0.00,,---,0.19,VWS V14.01,2013-08-08 16:59:00,
2013-08-08 13:04:00,79.3,66.5,30.08,NNE,22,0.0,0.0,65,0.00,,---,0.00,VWS V14.01,2013-08-08 17:04:00,
2013-08-08 13:09:00,79.3,66.1,30.08,NW,315,0.0,0.0,64,0.00,,---,0.00,VWS V14.01,2013-08-08 17:09:00,
2013-08-08 13:14:00,79.3,66.1,30.08,NNW,338,0.0,0.0,64,0.00,,---,0.00,VWS V14.01,2013-08-08 17:14:00,
2013-08-08 13:19:00,79.5,66.3,30.08,WSW,248,0.0,0.0,64,0.00,,---,0.00,VWS V14.01,2013-08-08 17:19:00,
2013-08-08 13:24:00,79.8,66.6,30.09,WSW,248,0.0,0.0,64,0.00,,---,0.00,VWS V14.01,2013-08-08 17:24:00,
2013-08-08 13:30:00,80.2,66.5,30.09,WSW,248,0.0,0.0,63,0.00,,---,0.00,VWS V14.01,2013-08-08 17:30:00,
2013-08-08 13:35:00,80.4,66.7,30.09,NW,315,0.0,0.0,63,0.00,,---,0.00,VWS V14.01,2013-08-08 17:35:00,
2013-08-08 13:39:00,80.9,67.1,30.09,NW,315,0.0,0.0,63,0.00,,---,0.00,VWS V14.01,2013-08-08 17:39:00,
2013-08-08 13:44:00,81.3,67.1,30.09,NNW,338,0.0,0.0,62,0.00,,---,0.00,VWS V14.01,2013-08-08 17:44:00,
2013-08-08 13:49:00,81.3,66.6,30.09,NNW,338,0.0,0.0,61,0.00,,---,0.00,VWS V14.01,2013-08-08 17:49:00,
2013-08-08 13:54:00,81.3,66.6,30.09,NNE,22,0.0,0.0,61,0.00,,---,0.00,VWS V14.01,2013-08-08 17:54:00,
2013-08-08 13:59:00,81.1,66.4,30.09,WSW,248,0.0,0.0,61,0.00,,---,0.19,VWS V14.01,2013-08-08 17:59:00,
2013-08-08 14:04:00,81.3,66.6,30.09,WSW,248,0.0,0.0,61,0.00,,---,0.00,VWS V14.01,2013-08-08 18:04:00,
2013-08-08 14:09:00,81.6,67.3,30.09,SE,135,0.0,0.0,62,0.00,,---,0.00,VWS V14.01,2013-08-08 18:09:00,
2013-08-08 14:15:00,82.0,67.2,30.09,WSW,248,0.0,0.0,61,0.00,,---,0.00,VWS V14.01,2013-08-08 18:15:00,
2013-08-08 14:19:00,81.8,66.6,30.09,NNW,338,0.0,0.0,60,0.00,,---,0.00,VWS V14.01,2013-08-08 18:19:00,
2013-08-08 14:24:00,81.6,66.4,30.09,WNW,292,0.0,0.0,60,0.00,,---,0.00,VWS V14.01,2013-08-08 18:24:00,
2013-08-08 14:29:00,81.3,66.1,30.09,SE,135,0.0,0.0,60,0.00,,---,0.00,VWS V14.01,2013-08-08 18:29:00,
2013-08-08 14:34:00,80.9,65.7,30.09,NE,45,0.0,0.0,60,0.00,,---,0.00,VWS V14.01,2013-08-08 18:34:00,
2013-08-08 14:39:00,80.9,66.2,30.09,ENE,68,0.0,0.0,61,0.00,,---,0.00,VWS V14.01,2013-08-08 18:39:00,
2013-08-08 14:45:00,81.1,66.4,30.09,NE,45,0.0,0.0,61,0.00,,---,0.00,VWS V14.01,2013-08-08 18:45:00,
2013-08-08 14:49:00,81.1,66.4,30.09,NW,315,0.0,0.0,61,0.00,,---,0.00,VWS V14.01,2013-08-08 18:49:00,
2013-08-08 14:55:00,81.3,66.6,30.09,NW,315,4.9,4.9,61,0.00,,---,0.00,VWS V14.01,2013-08-08 18:55:00,
2013-08-08 15:00:00,81.5,66.3,30.08,NW,315,0.0,0.0,60,0.00,,---,0.19,VWS V14.01,2013-08-08 19:00:00,
2013-08-08 15:05:00,81.6,66.4,30.09,NW,315,0.0,0.0,60,0.00,,---,0.00,VWS V14.01,2013-08-08 19:05:00,
2013-08-08 15:09:00,82.2,66.9,30.09,SE,135,0.0,0.0,60,0.00,,---,0.00,VWS V14.01,2013-08-08 19:09:00,
2013-08-08 15:14:00,82.2,66.9,30.09,NW,315,0.0,0.0,60,0.00,,---,0.00,VWS V14.01,2013-08-08 19:14:00,
2013-08-08 15:20:00,82.5,66.2,30.08,SW,225,2.0,2.0,58,0.00,,---,0.00,VWS V14.01,2013-08-08 19:20:00,
2013-08-08 15:25:00,82.4,65.7,30.08,North,0,0.0,0.0,57,0.00,,---,0.00,VWS V14.01,2013-08-08 19:25:00,
2013-08-08 15:30:00,82.0,65.3,30.08,NW,315,0.0,0.0,57,0.00,,---,0.00,VWS V14.01,2013-08-08 19:30:00,
2013-08-08 15:35:00,81.6,64.9,30.08,NW,315,0.0,0.0,57,0.00,,---,0.00,VWS V14.01,2013-08-08 19:35:00,
2013-08-08 15:40:00,81.5,65.3,30.08,NNW,338,0.0,0.0,58,0.00,,---,0.00,VWS V14.01,2013-08-08 19:40:00,
2013-08-08 15:45:00,81.3,65.1,30.08,NNW,338,0.0,0.0,58,0.00,,---,0.00,VWS V14.01,2013-08-08 19:45:00,
2013-08-08 15:50:00,81.3,65.1,30.08,SE,135,0.0,0.0,58,0.00,,---,0.00,VWS V14.01,2013-08-08 19:50:00,
2013-08-08 15:55:00,80.9,64.8,30.08,South,180,0.0,0.0,58,0.00,,---,0.00,VWS V14.01,2013-08-08 19:55:00,
2013-08-08 16:00:00,80.7,64.6,30.08,SE,135,0.0,0.0,58,0.00,,---,0.00,VWS V14.01,2013-08-08 20:00:00,
2013-08-08 16:05:00,80.7,65.1,30.08,NNW,338,0.0,0.0,59,0.00,,---,0.00,VWS V14.01,2013-08-08 20:05:00,
2013-08-08 16:10:00,80.9,65.2,30.08,SE,135,0.0,0.0,59,0.00,,---,0.00,VWS V14.01,2013-08-08 20:10:00,
2013-08-08 16:15:00,81.1,64.9,30.08,SE,135,0.0,0.0,58,0.00,,---,0.00,VWS V14.01,2013-08-08 20:15:00,
2013-08-08 16:20:00,81.3,65.1,30.08,NNW,338,5.5,5.5,58,0.00,,---,0.00,VWS V14.01,2013-08-08 20:20:00,
2013-08-08 16:25:00,81.5,65.3,30.07,ENE,68,0.0,0.0,58,0.00,,---,0.00,VWS V14.01,2013-08-08 20:25:00,
2013-08-08 16:30:00,81.8,65.6,30.07,ENE,68,0.0,2.4,58,0.00,,---,0.00,VWS V14.01,2013-08-08 20:30:00,
2013-08-08 16:35:00,82.0,66.3,30.07,WNW,292,0.0,0.0,59,0.00,,---,0.00,VWS V14.01,2013-08-08 20:35:00,
2013-08-08 16:40:00,82.2,66.0,30.07,SE,135,0.0,0.0,58,0.00,,---,0.00,VWS V14.01,2013-08-08 20:40:00,
2013-08-08 16:45:00,82.0,65.8,30.08,NW,315,0.8,0.8,58,0.00,,---,0.00,VWS V14.01,2013-08-08 20:45:00,
2013-08-08 16:50:00,82.0,65.3,30.08,NNW,338,0.0,0.0,57,0.00,,---,0.00,VWS V14.01,2013-08-08 20:50:00,
2013-08-08 16:55:00,81.8,65.1,30.08,SE,135,0.0,0.0,57,0.00,,---,0.00,VWS V14.01,2013-08-08 20:55:00,
2013-08-08 17:00:00,81.3,64.6,30.08,NW,315,0.0,0.0,57,0.00,,---,0.00,VWS V14.01,2013-08-08 21:00:00,
2013-08-08 17:05:00,81.1,64.4,30.08,East,90,0.0,0.0,57,0.00,,---,0.00,VWS V14.01,2013-08-08 21:05:00,
2013-08-08 17:10:00,80.7,64.6,30.07,NNW,338,0.0,0.0,58,0.00,,---,0.00,VWS V14.01,2013-08-08 21:10:00,
2013-08-08 17:16:00,80.7,64.6,30.07,NNE,22,0.0,0.0,58,0.00,,---,0.00,VWS V14.01,2013-08-08 21:16:00,
2013-08-08 17:21:00,80.6,65.0,30.07,SE,135,0.0,0.0,59,0.00,,---,0.00,VWS V14.01,2013-08-08 21:21:00,
2013-08-08 17:26:00,80.4,64.8,30.07,SSE,158,0.0,0.0,59,0.00,,---,0.00,VWS V14.01,2013-08-08 21:26:00,
2013-08-08 17:31:00,80.4,64.8,30.08,SE,135,0.0,0.0,59,0.00,,---,0.00,VWS V14.01,2013-08-08 21:31:00,
2013-08-08 17:36:00,80.4,64.8,30.08,North,0,0.0,0.0,59,0.00,,---,0.00,VWS V14.01,2013-08-08 21:36:00,
2013-08-08 17:41:00,80.4,64.8,30.07,NW,315,0.0,0.0,59,0.00,,---,0.00,VWS V14.01,2013-08-08 21:41:00,
2013-08-08 17:46:00,80.6,65.0,30.08,NNE,22,0.0,0.0,59,0.00,,---,0.00,VWS V14.01,2013-08-08 21:46:00,
2013-08-08 17:51:00,80.4,64.8,30.08,South,180,0.0,0.0,59,0.00,,---,0.00,VWS V14.01,2013-08-08 21:51:00,
2013-08-08 17:56:00,80.2,64.6,30.08,SE,135,0.0,0.0,59,0.00,,---,0.00,VWS V14.01,2013-08-08 21:56:00,
2013-08-08 18:01:00,80.0,64.4,30.08,NW,315,0.0,0.0,59,0.00,,---,0.00,VWS V14.01,2013-08-08 22:01:00,
2013-08-08 18:07:00,79.8,64.7,30.08,South,180,0.0,0.0,60,0.00,,---,0.00,VWS V14.01,2013-08-08 22:07:00,
2013-08-08 18:12:00,79.7,64.6,30.09,SSE,158,0.0,0.0,60,0.00,,---,0.00,VWS V14.01,2013-08-08 22:12:00,
2013-08-08 18:17:00,79.3,64.2,30.09,SE,135,0.0,0.0,60,0.00,,---,0.00,VWS V14.01,2013-08-08 22:17:00,
2013-08-08 18:22:00,79.3,64.7,30.09,SE,135,0.0,0.0,61,0.00,,---,0.00,VWS V14.01,2013-08-08 22:22:00,
2013-08-08 18:27:00,79.1,64.5,30.09,ENE,68,0.0,0.0,61,0.00,,---,0.00,VWS V14.01,2013-08-08 22:27:00,
2013-08-08 18:32:00,78.9,64.3,30.09,ENE,68,0.0,0.0,61,0.00,,---,0.00,VWS V14.01,2013-08-08 22:32:00,
2013-08-08 18:37:00,78.9,64.8,30.08,ENE,68,0.0,0.0,62,0.00,,---,0.00,VWS V14.01,2013-08-08 22:37:00,
2013-08-08 18:42:00,78.8,64.7,30.08,ENE,68,0.0,0.0,62,0.00,,---,0.00,VWS V14.01,2013-08-08 22:42:00,
2013-08-08 18:47:00,78.6,64.5,30.08,ENE,68,0.0,0.0,62,0.00,,---,0.00,VWS V14.01,2013-08-08 22:47:00,
2013-08-08 18:52:00,78.6,64.5,30.08,ENE,68,0.0,0.0,62,0.00,,---,0.00,VWS V14.01,2013-08-08 22:52:00,
2013-08-08 18:57:00,78.4,64.8,30.08,ENE,68,0.0,0.0,63,0.00,,---,0.00,VWS V14.01,2013-08-08 22:57:00,
2013-08-08 19:02:00,78.4,64.8,30.08,ENE,68,0.0,0.0,63,0.00,,---,0.00,VWS V14.01,2013-08-08 23:02:00,
2013-08-08 19:07:00,78.0,64.4,30.09,ENE,68,0.0,0.0,63,0.00,,---,0.00,VWS V14.01,2013-08-08 23:07:00,
2013-08-08 19:12:00,77.9,64.3,30.08,ENE,68,0.0,0.0,63,0.00,,---,0.00,VWS V14.01,2013-08-08 23:12:00,
2013-08-08 19:17:00,77.7,64.6,30.09,ENE,68,0.0,0.0,64,0.00,,---,0.00,VWS V14.01,2013-08-08 23:17:00,
2013-08-08 19:22:00,77.7,64.6,30.08,ENE,68,0.0,0.0,64,0.00,,---,0.00,VWS V14.01,2013-08-08 23:22:00,
2013-08-08 19:27:00,77.5,64.4,30.08,ENE,68,0.0,0.0,64,0.00,,---,0.00,VWS V14.01,2013-08-08 23:27:00,
2013-08-08 19:32:00,77.3,64.6,30.08,ENE,68,0.0,0.0,65,0.00,,---,0.00,VWS V14.01,2013-08-08 23:32:00,
2013-08-08 19:37:00,77.1,64.4,30.08,ENE,68,0.0,0.0,65,0.00,,---,0.00,VWS V14.01,2013-08-08 23:37:00,
2013-08-08 19:43:00,76.8,64.2,30.08,ENE,68,0.0,0.0,65,0.00,,---,0.00,VWS V14.01,2013-08-08 23:43:00,
2013-08-08 19:48:00,76.6,64.0,30.09,ENE,68,0.0,0.0,65,0.00,,---,0.00,VWS V14.01,2013-08-08 23:48:00,
2013-08-08 19:53:00,76.4,64.2,30.08,ENE,68,0.0,0.0,66,0.00,,---,0.00,VWS V14.01,2013-08-08 23:53:00,
2013-08-08 19:58:00,76.1,63.9,30.08,ENE,68,0.0,0.0,66,0.00,,---,0.19,VWS V14.01,2013-08-08 23:58:00,
2013-08-08 20:03:00,75.9,63.7,30.08,ENE,68,0.0,0.0,66,0.00,,---,0.00,VWS V14.01,2013-08-09 00:03:00,
2013-08-08 20:08:00,75.7,64.0,30.07,ENE,68,0.0,0.0,67,0.00,,---,0.00,VWS V14.01,2013-08-09 00:08:00,
2013-08-08 20:13:00,75.3,63.6,30.08,ENE,68,0.0,0.0,67,0.00,,---,0.00,VWS V14.01,2013-08-09 00:13:00,
2013-08-08 20:19:00,75.3,63.6,30.08,ENE,68,0.0,0.0,67,0.00,,---,0.00,VWS V14.01,2013-08-09 00:19:00,
2013-08-08 20:24:00,75.0,63.3,30.08,ENE,68,0.0,0.0,67,0.00,,---,0.00,VWS V14.01,2013-08-09 00:24:00,
2013-08-08 20:29:00,74.8,63.5,30.08,ENE,68,0.0,0.0,68,0.00,,---,0.00,VWS V14.01,2013-08-09 00:29:00,
2013-08-08 20:34:00,74.4,63.2,30.09,ENE,68,0.0,0.0,68,0.00,,---,0.00,VWS V14.01,2013-08-09 00:34:00,
2013-08-08 20:39:00,74.3,63.1,30.09,ENE,68,0.0,0.0,68,0.00,,---,0.00,VWS V14.01,2013-08-09 00:39:00,
2013-08-08 20:44:00,73.9,63.1,30.09,ENE,68,0.0,0.0,69,0.00,,---,0.00,VWS V14.01,2013-08-09 00:44:00,
2013-08-08 20:49:00,73.7,62.9,30.09,ENE,68,0.0,0.0,69,0.00,,---,0.00,VWS V14.01,2013-08-09 00:49:00,
2013-08-08 20:54:00,73.5,62.7,30.09,ENE,68,0.0,0.0,69,0.00,,---,0.00,VWS V14.01,2013-08-09 00:54:00,
2013-08-08 20:59:00,73.2,62.4,30.10,ENE,68,0.0,0.0,69,0.00,,---,0.19,VWS V14.01,2013-08-09 00:59:00,
2013-08-08 21:04:00,73.2,62.8,30.10,ENE,68,0.0,0.0,70,0.00,,---,0.00,VWS V14.01,2013-08-09 01:04:00,
2013-08-08 21:09:00,73.0,62.7,30.10,ENE,68,0.0,0.0,70,0.00,,---,0.00,VWS V14.01,2013-08-09 01:09:00,
2013-08-08 21:14:00,72.8,62.5,30.10,ENE,68,0.0,0.0,70,0.00,,---,0.00,VWS V14.01,2013-08-09 01:14:00,
2013-08-08 21:19:00,72.6,62.3,30.10,ENE,68,0.0,0.0,70,0.00,,---,0.00,VWS V14.01,2013-08-09 01:19:00,
2013-08-08 21:24:00,72.3,62.4,30.10,ENE,68,0.0,0.0,71,0.00,,---,0.00,VWS V14.01,2013-08-09 01:24:00,
2013-08-08 21:29:00,72.3,62.4,30.10,ENE,68,0.0,0.0,71,0.00,,---,0.00,VWS V14.01,2013-08-09 01:29:00,
2013-08-08 21:34:00,72.1,62.2,30.10,ENE,68,0.0,0.0,71,0.00,,---,0.00,VWS V14.01,2013-08-09 01:34:00,
2013-08-08 21:40:00,71.9,62.4,30.10,ENE,68,0.0,0.0,72,0.00,,---,0.00,VWS V14.01,2013-08-09 01:40:00,
2013-08-08 21:45:00,71.7,62.2,30.10,ENE,68,0.0,0.0,72,0.00,,---,0.00,VWS V14.01,2013-08-09 01:45:00,
2013-08-08 21:50:00,71.7,62.2,30.09,ENE,68,0.0,0.0,72,0.00,,---,0.00,VWS V14.01,2013-08-09 01:50:00,
2013-08-08 21:55:00,71.4,61.9,30.09,ENE,68,0.0,0.0,72,0.00,,---,0.00,VWS V14.01,2013-08-09 01:55:00,
2013-08-08 22:00:00,71.4,61.9,30.09,ENE,68,0.0,0.0,72,0.00,,---,0.00,VWS V14.01,2013-08-09 02:00:00,
2013-08-08 22:05:00,71.2,61.7,30.09,ENE,68,0.0,0.0,72,0.00,,---,0.00,VWS V14.01,2013-08-09 02:05:00,
2013-08-08 22:10:00,71.2,62.1,30.09,ENE,68,0.0,0.0,73,0.00,,---,0.00,VWS V14.01,2013-08-09 02:10:00,
2013-08-08 22:15:00,70.8,61.7,30.09,ENE,68,0.0,0.0,73,0.00,,---,0.00,VWS V14.01,2013-08-09 02:15:00,
2013-08-08 22:20:00,70.7,61.6,30.08,ENE,68,0.0,0.0,73,0.00,,---,0.00,VWS V14.01,2013-08-09 02:20:00,
2013-08-08 22:25:00,70.5,61.4,30.08,ENE,68,0.0,0.0,73,0.00,,---,0.00,VWS V14.01,2013-08-09 02:25:00,
2013-08-08 22:30:00,70.5,61.4,30.08,ENE,68,0.0,0.0,73,0.00,,---,0.00,VWS V14.01,2013-08-09 02:30:00,
2013-08-08 22:35:00,70.3,61.6,30.08,ENE,68,0.0,0.0,74,0.00,,---,0.00,VWS V14.01,2013-08-09 02:35:00,
2013-08-08 22:40:00,70.3,61.6,30.08,ENE,68,0.0,0.0,74,0.00,,---,0.00,VWS V14.01,2013-08-09 02:40:00,
2013-08-08 22:45:00,69.9,61.2,30.08,ENE,68,0.0,0.0,74,0.00,,---,0.00,VWS V14.01,2013-08-09 02:45:00,
2013-08-08 22:50:00,69.9,61.2,30.08,ENE,68,0.0,0.0,74,0.00,,---,0.00,VWS V14.01,2013-08-09 02:50:00,
2013-08-08 22:55:00,69.8,61.2,30.08,ENE,68,0.0,0.0,74,0.00,,---,0.00,VWS V14.01,2013-08-09 02:55:00,
2013-08-08 23:00:00,69.6,61.0,30.08,ENE,68,0.0,0.0,74,0.00,,---,0.00,VWS V14.01,2013-08-09 03:00:00,
2013-08-08 23:05:00,69.6,61.3,30.08,ENE,68,0.0,0.0,75,0.00,,---,0.00,VWS V14.01,2013-08-09 03:05:00,
2013-08-08 23:10:00,69.6,61.3,30.08,ENE,68,0.0,0.0,75,0.00,,---,0.00,VWS V14.01,2013-08-09 03:10:00,
2013-08-08 23:15:00,69.4,61.1,30.08,ENE,68,0.0,0.0,75,0.00,,---,0.00,VWS V14.01,2013-08-09 03:15:00,
2013-08-08 23:20:00,69.4,61.1,30.08,ENE,68,0.0,0.0,75,0.00,,---,0.00,VWS V14.01,2013-08-09 03:20:00,
2013-08-08 23:25:00,69.4,61.5,30.07,ENE,68,0.0,0.0,76,0.00,,---,0.00,VWS V14.01,2013-08-09 03:25:00,
2013-08-08 23:30:00,69.2,61.3,30.08,ENE,68,0.0,0.0,76,0.00,,---,0.00,VWS V14.01,2013-08-09 03:30:00,
2013-08-08 23:35:00,69.2,61.7,30.08,SE,135,0.0,0.0,77,0.00,,---,0.00,VWS V14.01,2013-08-09 03:35:00,
2013-08-08 23:40:00,69.0,61.5,30.08,SSE,158,0.0,0.0,77,0.00,,---,0.00,VWS V14.01,2013-08-09 03:40:00,
2013-08-08 23:45:00,69.0,61.5,30.08,SSE,158,0.0,0.0,77,0.00,,---,0.00,VWS V14.01,2013-08-09 03:45:00,
2013-08-08 23:50:00,69.0,61.5,30.08,SSE,158,0.0,0.0,77,0.02,,---,0.02,VWS V14.01,2013-08-09 03:50:00,
2013-08-08 23:55:00,69.0,61.9,30.08,SSE,158,0.0,0.0,78,0.02,,---,0.02,VWS V14.01,2013-08-09 03:55:00,